Time;durP1;ratioP1;P1;durP2;ratioP2;P2;SDS_P1;SDS_P2;PMS_P1;PMS_P2;Temp;Humidity;BMP_temperature;BMP_pressure;BME280_temperature;BME280_humidity;BME280_pressure;Samples;Min_cycle;Max_cycle;Signal;HPM_P1;HPM_P2
2022/03/19 00:01:14;;;;;;;1.02;0.93;;;;;;;;;;5028297;28;20044;-90
2022/03/19 00:03:41;;;;;;;0.70;0.70;;;;;;;;;;5025210;28;20049;-89
2022/03/19 00:06:07;;;;;;;0.25;0.25;;;;;;;;;;5054328;28;20045;-90
2022/03/19 00:08:33;;;;;;;0.30;0.30;;;;;;;;;;5045250;28;20052;-90
2022/03/19 00:11:00;;;;;;;2.40;2.25;;;;;;;;;;5023524;28;20041;-90
2022/03/19 00:13:28;;;;;;;0.50;0.50;;;;;;;;;;5052647;28;20124;-90
2022/03/19 00:15:56;;;;;;;1.50;0.90;;;;;;;;;;5023808;28;20037;-91
2022/03/19 00:18:24;;;;;;;0.28;0.28;;;;;;;;;;5024461;28;20077;-91
2022/03/19 00:20:50;;;;;;;0.30;0.30;;;;;;;;;;5058033;28;20038;-90
2022/03/19 00:23:16;;;;;;;0.40;0.40;;;;;;;;;;5022030;28;20041;-90
2022/03/19 00:25:43;;;;;;;2.40;0.75;;;;;;;;;;4993974;28;20064;-90
2022/03/19 00:28:09;;;;;;;0.50;0.50;;;;;;;;;;4988779;28;20076;-89
2022/03/19 00:30:35;;;;;;;4.80;2.55;;;;;;;;;;4973159;28;20042;-90
2022/03/19 00:33:01;;;;;;;4.22;1.00;;;;;;;;;;4988800;28;20037;-90
2022/03/19 00:35:27;;;;;;;0.73;0.68;;;;;;;;;;5029440;28;20045;-90
2022/03/19 00:37:54;;;;;;;2.05;1.13;;;;;;;;;;5005528;28;20034;-90
2022/03/19 00:40:22;;;;;;;0.75;0.50;;;;;;;;;;4976204;28;20507;-89
2022/03/19 00:42:48;;;;;;;0.28;0.28;;;;;;;;;;5036550;28;20048;-90
2022/03/19 00:45:18;;;;;;;0.30;0.30;;;;;;;;;;5007470;28;20498;-90
2022/03/19 00:47:44;;;;;;;1.67;0.75;;;;;;;;;;5040727;28;20044;-90
2022/03/19 00:50:11;;;;;;;1.48;0.88;;;;;;;;;;5020881;28;20041;-89
2022/03/19 00:52:38;;;;;;;0.30;0.30;;;;;;;;;;4989930;28;20038;-90
2022/03/19 00:55:04;;;;;;;2.05;1.15;;;;;;;;;;4988952;28;20129;-90
2022/03/19 00:57:37;;;;;;;1.55;0.93;;;;;;;;;;4988322;28;20048;-90
2022/03/19 01:00:04;;;;;;;0.40;0.40;;;;;;;;;;4989174;28;20068;-90
2022/03/19 01:02:30;;;;;;;0.30;0.30;;;;;;;;;;4988604;28;20462;-89
2022/03/19 01:05:04;;;;;;;0.52;0.50;;;;;;;;;;5005156;28;20042;-92
2022/03/19 01:07:30;;;;;;;0.22;0.22;;;;;;;;;;4988278;28;20216;-90
2022/03/19 01:09:56;;;;;;;0.60;0.60;;;;;;;;;;4989055;28;20181;-91
2022/03/19 01:12:23;;;;;;;1.58;0.93;;;;;;;;;;4988696;28;20034;-91
2022/03/19 01:14:49;;;;;;;0.30;0.30;;;;;;;;;;4988584;28;20042;-91
2022/03/19 01:17:15;;;;;;;0.30;0.30;;;;;;;;;;4988655;28;20101;-90
2022/03/19 01:19:53;;;;;;;0.30;0.30;;;;;;;;;;4988690;28;20442;-90
2022/03/19 01:22:21;;;;;;;8.18;1.25;;;;;;;;;;4998806;28;20037;-89
2022/03/19 01:24:47;;;;;;;0.30;0.30;;;;;;;;;;5007153;28;20509;-90
2022/03/19 01:27:14;;;;;;;0.40;0.40;;;;;;;;;;5008090;28;20076;-90
2022/03/19 01:29:40;;;;;;;0.40;0.40;;;;;;;;;;5007710;28;20068;-90
2022/03/19 01:32:07;;;;;;;1.00;0.93;;;;;;;;;;5007991;28;20052;-90
2022/03/19 01:34:33;;;;;;;2.42;1.48;;;;;;;;;;5007411;28;20128;-90
2022/03/19 01:36:59;;;;;;;0.30;0.30;;;;;;;;;;5006852;28;20500;-91
2022/03/19 01:39:25;;;;;;;1.58;0.80;;;;;;;;;;5006542;28;20132;-88
2022/03/19 01:41:54;;;;;;;1.10;0.95;;;;;;;;;;5007869;28;20072;-90
2022/03/19 01:44:21;;;;;;;2.72;2.15;;;;;;;;;;5006622;28;20490;-90
2022/03/19 01:47:13;;;;;;;0.65;0.65;;;;;;;;;;5006610;28;20151;-90
2022/03/19 01:49:39;;;;;;;0.20;0.20;;;;;;;;;;5004210;28;20046;-90
2022/03/19 01:52:05;;;;;;;0.30;0.30;;;;;;;;;;5007164;28;20038;-90
2022/03/19 01:54:38;;;;;;;0.30;0.30;;;;;;;;;;5007461;28;20049;-90
2022/03/19 01:57:08;;;;;;;0.30;0.30;;;;;;;;;;5024408;28;20037;-91
2022/03/19 01:59:36;;;;;;;0.47;0.47;;;;;;;;;;5007254;28;20064;-91
2022/03/19 02:02:07;;;;;;;0.45;0.45;;;;;;;;;;5019531;28;20102;-90
2022/03/19 02:04:36;;;;;;;0.30;0.30;;;;;;;;;;5007227;28;20101;-90
2022/03/19 02:07:03;;;;;;;0.40;0.40;;;;;;;;;;5006570;28;20067;-91
2022/03/19 02:09:29;;;;;;;0.50;0.50;;;;;;;;;;5007425;28;20048;-90
2022/03/19 02:11:55;;;;;;;0.38;0.38;;;;;;;;;;4991581;28;20497;-90
2022/03/19 02:14:21;;;;;;;0.80;0.60;;;;;;;;;;5007622;28;20056;-90
2022/03/19 02:16:48;;;;;;;0.20;0.20;;;;;;;;;;5006880;28;20045;-91
2022/03/19 02:19:15;;;;;;;0.40;0.40;;;;;;;;;;5007388;28;20063;-91
2022/03/19 02:21:42;;;;;;;0.30;0.30;;;;;;;;;;5009647;28;20038;-91
2022/03/19 02:26:53;;;;;;;0.30;0.30;;;;;;;;;;5027359;28;20107;-89
2022/03/19 02:29:22;;;;;;;0.50;0.50;;;;;;;;;;5027466;28;20105;-89
2022/03/19 02:31:49;;;;;;;0.60;0.60;;;;;;;;;;5027272;28;20044;-89
2022/03/19 02:34:15;;;;;;;0.40;0.40;;;;;;;;;;5009895;28;20497;-88
2022/03/19 02:36:41;;;;;;;0.47;0.47;;;;;;;;;;5026710;28;20067;-89
2022/03/19 02:39:13;;;;;;;0.40;0.40;;;;;;;;;;5010310;28;20041;-89
2022/03/19 02:41:43;;;;;;;0.93;0.80;;;;;;;;;;5010069;28;20037;-88
2022/03/19 02:44:13;;;;;;;0.95;0.95;;;;;;;;;;5027089;28;20081;-90
2022/03/19 02:46:47;;;;;;;0.30;0.30;;;;;;;;;;5009832;28;20049;-90
2022/03/19 02:49:14;;;;;;;0.40;0.40;;;;;;;;;;5026368;28;20085;-89
2022/03/19 02:51:40;;;;;;;2.40;1.95;;;;;;;;;;5009634;28;20044;-90
2022/03/19 02:54:08;;;;;;;0.40;0.40;;;;;;;;;;5009579;28;20045;-89
2022/03/19 02:56:36;;;;;;;1.15;1.05;;;;;;;;;;5009219;28;20038;-88
2022/03/19 02:59:08;;;;;;;0.32;0.32;;;;;;;;;;5009069;28;20037;-89
2022/03/19 03:01:35;;;;;;;0.45;0.40;;;;;;;;;;5008340;28;20037;-89
2022/03/19 03:04:01;;;;;;;1.63;1.00;;;;;;;;;;5024476;28;20140;-89
2022/03/19 03:06:28;;;;;;;0.50;0.50;;;;;;;;;;5024264;28;20482;-89
2022/03/19 03:08:54;;;;;;;1.42;0.75;;;;;;;;;;5024417;28;20045;-90
2022/03/19 03:11:20;;;;;;;0.20;0.20;;;;;;;;;;5026209;28;20052;-90
2022/03/19 03:13:46;;;;;;;4.57;1.27;;;;;;;;;;5009717;28;20037;-89
2022/03/19 03:16:12;;;;;;;0.30;0.30;;;;;;;;;;5009376;28;20100;-88
2022/03/19 03:18:38;;;;;;;0.40;0.40;;;;;;;;;;5009397;28;20065;-90
2022/03/19 03:21:05;;;;;;;27.55;1.17;;;;;;;;;;5010368;28;20128;-89
2022/03/19 03:23:37;;;;;;;0.75;0.50;;;;;;;;;;5010531;28;20049;-90
2022/03/19 03:26:03;;;;;;;0.40;0.40;;;;;;;;;;5009351;28;20041;-90
2022/03/19 03:28:29;;;;;;;1.05;0.95;;;;;;;;;;5009106;28;20127;-90
2022/03/19 03:30:56;;;;;;;0.30;0.30;;;;;;;;;;5009257;28;20447;-89
2022/03/19 03:33:22;;;;;;;0.28;0.28;;;;;;;;;;5007145;28;20041;-89
2022/03/19 03:35:49;;;;;;;0.30;0.30;;;;;;;;;;5008296;28;20102;-89
2022/03/19 03:38:15;;;;;;;0.73;0.73;;;;;;;;;;5009235;28;20564;-88
2022/03/19 03:40:42;;;;;;;0.82;0.80;;;;;;;;;;5024761;28;20037;-89
2022/03/19 03:43:09;;;;;;;0.82;0.70;;;;;;;;;;5008638;28;20491;-89
2022/03/19 03:45:35;;;;;;;0.30;0.30;;;;;;;;;;5008859;28;20099;-88
2022/03/19 03:48:01;;;;;;;0.30;0.30;;;;;;;;;;5025095;28;20049;-89
2022/03/19 03:50:28;;;;;;;0.90;0.65;;;;;;;;;;5009236;28;20045;-89
2022/03/19 03:52:57;;;;;;;2.30;0.88;;;;;;;;;;5025157;28;20042;-89
2022/03/19 03:55:23;;;;;;;0.45;0.40;;;;;;;;;;5024697;28;20045;-89
2022/03/19 03:57:49;;;;;;;9.80;1.17;;;;;;;;;;5009011;28;20045;-89
2022/03/19 04:00:16;;;;;;;1.95;0.95;;;;;;;;;;5025094;28;20041;-89
2022/03/19 04:02:42;;;;;;;0.30;0.30;;;;;;;;;;5008921;28;20091;-89
2022/03/19 04:05:09;;;;;;;0.60;0.60;;;;;;;;;;5008280;28;20041;-90
2022/03/19 04:07:35;;;;;;;0.75;0.75;;;;;;;;;;5024497;28;20650;-89
2022/03/19 04:10:01;;;;;;;1.42;1.33;;;;;;;;;;5008281;28;20079;-89
2022/03/19 04:12:27;;;;;;;0.65;0.65;;;;;;;;;;5041074;28;20045;-89
2022/03/19 04:14:53;;;;;;;2.08;1.38;;;;;;;;;;5041021;28;20045;-89
2022/03/19 04:17:19;;;;;;;0.68;0.60;;;;;;;;;;5040394;28;20402;-89
2022/03/19 04:19:45;;;;;;;0.30;0.30;;;;;;;;;;5040392;28;20104;-89
2022/03/19 04:22:11;;;;;;;0.90;0.70;;;;;;;;;;4992204;28;20033;-89
2022/03/19 04:24:38;;;;;;;0.55;0.55;;;;;;;;;;5039746;28;20041;-89
2022/03/19 04:27:04;;;;;;;0.75;0.57;;;;;;;;;;5039961;28;20398;-89
2022/03/19 04:29:32;;;;;;;2.03;0.85;;;;;;;;;;5039925;28;20045;-89
2022/03/19 04:31:58;;;;;;;0.30;0.30;;;;;;;;;;5041365;28;20089;-89
2022/03/19 04:34:26;;;;;;;3.30;0.80;;;;;;;;;;5041377;28;20048;-89
2022/03/19 04:36:53;;;;;;;0.65;0.52;;;;;;;;;;5040842;28;20045;-90
2022/03/19 04:39:19;;;;;;;0.57;0.52;;;;;;;;;;5041067;28;20037;-89
2022/03/19 04:41:45;;;;;;;2.95;1.13;;;;;;;;;;5057493;28;20049;-90
2022/03/19 04:44:11;;;;;;;0.30;0.30;;;;;;;;;;5040816;28;20092;-90
2022/03/19 04:46:38;;;;;;;1.42;0.95;;;;;;;;;;5041309;28;20045;-90
2022/03/19 04:49:04;;;;;;;0.68;0.60;;;;;;;;;;5041573;28;20372;-90
2022/03/19 04:51:32;;;;;;;0.50;0.50;;;;;;;;;;5041712;28;20654;-89
2022/03/19 04:53:58;;;;;;;0.52;0.52;;;;;;;;;;5041231;28;20041;-90
2022/03/19 04:56:25;;;;;;;0.60;0.60;;;;;;;;;;4991995;28;20041;-90
2022/03/19 04:58:53;;;;;;;0.68;0.68;;;;;;;;;;5040597;28;20033;-89
2022/03/19 05:01:19;;;;;;;2.97;1.15;;;;;;;;;;5040938;28;20128;-89
2022/03/19 05:03:45;;;;;;;0.40;0.40;;;;;;;;;;5040884;28;20037;-90
2022/03/19 05:06:11;;;;;;;0.82;0.50;;;;;;;;;;5007829;28;20048;-90
2022/03/19 05:08:37;;;;;;;0.30;0.30;;;;;;;;;;5024793;28;20052;-91
2022/03/19 05:11:12;;;;;;;0.45;0.45;;;;;;;;;;5008343;28;20042;-90
2022/03/19 05:13:39;;;;;;;0.68;0.60;;;;;;;;;;5008188;28;20037;-90
2022/03/19 05:16:05;;;;;;;0.77;0.65;;;;;;;;;;5008632;28;20124;-91
2022/03/19 05:18:31;;;;;;;1.42;0.95;;;;;;;;;;5008639;28;20072;-90
2022/03/19 05:20:57;;;;;;;0.30;0.30;;;;;;;;;;5008504;28;20081;-90
2022/03/19 05:23:23;;;;;;;2.70;1.10;;;;;;;;;;5009493;28;20048;-90
2022/03/19 05:25:50;;;;;;;0.68;0.57;;;;;;;;;;5025620;28;20131;-91
2022/03/19 05:28:16;;;;;;;2.30;1.45;;;;;;;;;;5010145;28;20068;-90
2022/03/19 05:30:43;;;;;;;1.52;1.42;;;;;;;;;;5008999;28;20452;-89
2022/03/19 05:33:10;;;;;;;0.35;0.35;;;;;;;;;;5009074;28;20068;-90
2022/03/19 05:35:39;;;;;;;0.40;0.40;;;;;;;;;;5008809;28;20042;-90
2022/03/19 05:38:06;;;;;;;0.38;0.38;;;;;;;;;;5009902;28;20068;-89
2022/03/19 05:40:32;;;;;;;1.38;0.73;;;;;;;;;;5008814;28;20063;-90
2022/03/19 05:42:58;;;;;;;0.77;0.55;;;;;;;;;;5008771;28;20040;-89
2022/03/19 05:45:24;;;;;;;0.43;0.43;;;;;;;;;;5026370;28;20105;-89
2022/03/19 05:47:50;;;;;;;0.73;0.70;;;;;;;;;;5008776;28;20041;-91
2022/03/19 05:50:17;;;;;;;0.40;0.40;;;;;;;;;;5008748;28;20041;-90
2022/03/19 05:52:45;;;;;;;0.77;0.77;;;;;;;;;;5009155;28;20099;-91
2022/03/19 05:55:12;;;;;;;0.40;0.40;;;;;;;;;;5008703;28;20041;-89
2022/03/19 05:57:40;;;;;;;4.38;0.95;;;;;;;;;;4996637;28;20140;-90
2022/03/19 06:00:07;;;;;;;0.40;0.40;;;;;;;;;;5013871;28;20041;-90
2022/03/19 06:02:38;;;;;;;0.40;0.40;;;;;;;;;;5029419;28;20049;-91
2022/03/19 06:05:04;;;;;;;0.52;0.52;;;;;;;;;;5013104;28;20037;-90
2022/03/19 06:07:30;;;;;;;0.77;0.77;;;;;;;;;;5012453;28;20041;-90
2022/03/19 06:09:58;;;;;;;0.30;0.30;;;;;;;;;;5012697;28;20072;-89
2022/03/19 06:12:24;;;;;;;0.47;0.47;;;;;;;;;;5028180;28;20048;-88
2022/03/19 06:14:53;;;;;;;0.52;0.52;;;;;;;;;;5012869;28;20045;-90
2022/03/19 06:17:21;;;;;;;0.40;0.40;;;;;;;;;;5012158;28;20040;-91
2022/03/19 06:19:48;;;;;;;0.65;0.63;;;;;;;;;;5046125;28;20042;-90
2022/03/19 06:22:16;;;;;;;0.50;0.50;;;;;;;;;;5012009;28;20037;-90
2022/03/19 06:24:42;;;;;;;0.40;0.40;;;;;;;;;;5028698;28;20068;-90
2022/03/19 06:27:08;;;;;;;0.45;0.40;;;;;;;;;;5012708;28;20092;-90
2022/03/19 06:29:36;;;;;;;0.52;0.52;;;;;;;;;;5029550;28;20037;-90
2022/03/19 06:32:06;;;;;;;0.70;0.47;;;;;;;;;;5029407;28;20152;-90
2022/03/19 06:34:32;;;;;;;2.13;1.38;;;;;;;;;;5012317;28;20045;-90
2022/03/19 06:39:43;;;;;;;0.60;0.60;;;;;;;;;;5029258;28;20445;-89
2022/03/19 06:42:09;;;;;;;19.92;1.63;;;;;;;;;;5012597;28;20085;-91
2022/03/19 06:44:38;;;;;;;0.55;0.55;;;;;;;;;;5012567;28;20048;-89
2022/03/19 06:47:04;;;;;;;1.33;1.02;;;;;;;;;;5011449;28;20095;-90
2022/03/19 06:49:30;;;;;;;8.27;2.58;;;;;;;;;;5011622;28;20041;-89
2022/03/19 06:51:56;;;;;;;1.27;1.02;;;;;;;;;;5011251;28;20132;-90
2022/03/19 06:54:22;;;;;;;3.90;1.48;;;;;;;;;;5010849;28;20478;-89
2022/03/19 06:56:49;;;;;;;2.00;0.80;;;;;;;;;;5011125;28;20037;-90
2022/03/19 06:59:15;;;;;;;0.60;0.60;;;;;;;;;;5011407;28;20103;-90
2022/03/19 07:01:41;;;;;;;2.88;1.15;;;;;;;;;;5009655;28;20049;-90
2022/03/19 07:04:07;;;;;;;0.98;0.70;;;;;;;;;;5023358;28;20149;-88
2022/03/19 07:06:33;;;;;;;1.17;1.08;;;;;;;;;;5007323;28;20085;-88
2022/03/19 07:08:59;;;;;;;3.47;1.00;;;;;;;;;;5006831;28;20099;-88
2022/03/19 07:11:25;;;;;;;0.50;0.50;;;;;;;;;;5025590;28;20065;-88
2022/03/19 07:13:52;;;;;;;0.82;0.68;;;;;;;;;;5012970;28;20041;-88
2022/03/19 07:16:18;;;;;;;0.55;0.50;;;;;;;;;;5006318;28;20038;-88
2022/03/19 07:18:44;;;;;;;1.40;0.93;;;;;;;;;;5014889;28;20041;-88
2022/03/19 07:21:15;;;;;;;1.95;0.63;;;;;;;;;;5036713;28;20041;-88
2022/03/19 07:23:43;;;;;;;0.45;0.45;;;;;;;;;;5024405;28;20102;-88
2022/03/19 07:26:09;;;;;;;1.33;0.85;;;;;;;;;;5017963;28;20072;-88
2022/03/19 07:28:35;;;;;;;4.47;2.38;;;;;;;;;;5022771;28;20558;-87
2022/03/19 07:31:02;;;;;;;0.85;0.82;;;;;;;;;;5012550;28;20501;-87
2022/03/19 07:33:29;;;;;;;0.70;0.70;;;;;;;;;;5041963;28;20049;-88
2022/03/19 07:35:55;;;;;;;0.90;0.85;;;;;;;;;;5021690;28;20103;-88
2022/03/19 07:38:21;;;;;;;0.80;0.55;;;;;;;;;;5023783;28;20108;-88
2022/03/19 07:43:32;;;;;;;2.67;0.88;;;;;;;;;;5038566;28;20044;-87
2022/03/19 07:45:57;;;;;;;3.92;1.45;;;;;;;;;;5026223;28;20073;-87
2022/03/19 07:48:23;;;;;;;6.78;1.75;;;;;;;;;;5019332;28;20029;-87
2022/03/19 07:50:49;;;;;;;9.60;2.58;;;;;;;;;;5005943;28;20049;-85
2022/03/19 07:53:15;;;;;;;0.75;0.60;;;;;;;;;;5005799;28;20037;-87
2022/03/19 07:55:41;;;;;;;10.02;1.45;;;;;;;;;;5037853;28;20120;-87
2022/03/19 07:58:07;;;;;;;11.88;2.25;;;;;;;;;;5041981;28;20072;-87
2022/03/19 08:00:33;;;;;;;4.57;0.80;;;;;;;;;;5009584;28;20128;-87
2022/03/19 08:02:59;;;;;;;5.72;1.45;;;;;;;;;;5016560;28;20033;-87
2022/03/19 08:05:26;;;;;;;2.45;1.30;;;;;;;;;;5040717;28;20033;-86
2022/03/19 08:07:52;;;;;;;3.13;2.35;;;;;;;;;;5041340;28;20040;-87
2022/03/19 08:10:18;;;;;;;5.28;1.10;;;;;;;;;;5042280;28;20076;-87
2022/03/19 08:12:45;;;;;;;3.83;1.58;;;;;;;;;;5025019;28;20047;-87
2022/03/19 08:15:11;;;;;;;1.83;1.10;;;;;;;;;;5020317;28;20044;-86
2022/03/19 08:17:41;;;;;;;3.60;1.15;;;;;;;;;;5012182;28;20073;-86
2022/03/19 08:20:07;;;;;;;1.42;0.85;;;;;;;;;;5004629;28;20030;-87
2022/03/19 08:22:34;;;;;;;6.40;2.25;;;;;;;;;;5022516;28;20042;-87
2022/03/19 08:25:01;;;;;;;3.15;1.02;;;;;;;;;;5020998;28;20045;-88
2022/03/19 08:27:27;;;;;;;3.63;1.33;;;;;;;;;;5031351;28;20124;-87
2022/03/19 08:29:53;;;;;;;5.90;1.83;;;;;;;;;;5041564;28;20036;-87
2022/03/19 08:32:22;;;;;;;0.88;0.55;;;;;;;;;;5058159;28;20051;-87
2022/03/19 08:34:48;;;;;;;1.75;1.20;;;;;;;;;;5041558;28;20041;-87
2022/03/19 08:37:14;;;;;;;2.55;1.25;;;;;;;;;;5040244;28;20409;-87
2022/03/19 08:42:24;;;;;;;8.23;1.27;;;;;;;;;;5037686;28;20037;-87
2022/03/19 08:44:51;;;;;;;9.38;1.73;;;;;;;;;;5038733;28;20048;-88
2022/03/19 08:47:17;;;;;;;8.68;1.88;;;;;;;;;;5031039;28;20410;-87
2022/03/19 08:49:43;;;;;;;3.00;1.48;;;;;;;;;;5021224;28;20441;-87
2022/03/19 08:52:10;;;;;;;0.63;0.40;;;;;;;;;;5055000;28;20037;-87
2022/03/19 08:54:36;;;;;;;13.00;2.78;;;;;;;;;;5054583;28;20053;-89
2022/03/19 08:57:02;;;;;;;3.15;0.93;;;;;;;;;;5054661;28;20064;-87
2022/03/19 08:59:28;;;;;;;3.80;1.55;;;;;;;;;;5062581;28;20030;-87
2022/03/19 09:01:54;;;;;;;3.20;1.15;;;;;;;;;;5029497;28;20110;-88
2022/03/19 09:04:20;;;;;;;5.25;1.52;;;;;;;;;;5031322;28;20045;-87
2022/03/19 09:06:47;;;;;;;5.57;2.05;;;;;;;;;;5036936;28;20091;-87
2022/03/19 09:09:14;;;;;;;4.63;1.70;;;;;;;;;;5022031;28;20068;-87
2022/03/19 09:11:41;;;;;;;1.42;0.80;;;;;;;;;;5041059;28;20045;-87
2022/03/19 09:14:08;;;;;;;3.03;1.33;;;;;;;;;;5032063;28;20128;-88
2022/03/19 09:16:34;;;;;;;5.43;1.67;;;;;;;;;;5020738;28;20091;-87
2022/03/19 09:19:01;;;;;;;6.00;1.38;;;;;;;;;;5021503;28;20044;-87
2022/03/19 09:21:29;;;;;;;0.85;0.63;;;;;;;;;;5041592;28;20624;-88
2022/03/19 09:23:55;;;;;;;4.15;1.85;;;;;;;;;;5040452;28;20109;-85
2022/03/19 09:26:21;;;;;;;3.17;1.20;;;;;;;;;;5029113;28;20046;-87
2022/03/19 09:28:47;;;;;;;4.25;1.50;;;;;;;;;;5026596;28;20047;-88
2022/03/19 09:31:31;;;;;;;2.67;1.23;;;;;;;;;;5040070;28;20048;-87
2022/03/19 09:33:57;;;;;;;0.60;0.60;;;;;;;;;;5036394;28;20033;-88
2022/03/19 09:36:24;;;;;;;3.10;1.20;;;;;;;;;;5020564;28;20041;-87
2022/03/19 09:38:50;;;;;;;3.53;0.95;;;;;;;;;;5053958;28;20101;-87
2022/03/19 09:41:16;;;;;;;2.20;1.00;;;;;;;;;;5067710;28;20041;-87
2022/03/19 09:43:42;;;;;;;8.18;2.05;;;;;;;;;;5056999;28;20103;-88
2022/03/19 09:46:08;;;;;;;3.47;1.50;;;;;;;;;;5029265;28;20042;-89
2022/03/19 09:48:34;;;;;;;1.33;1.00;;;;;;;;;;5035772;28;20049;-89
2022/03/19 09:51:02;;;;;;;1.92;0.80;;;;;;;;;;5032732;28;20044;-88
2022/03/19 09:53:28;;;;;;;1.50;1.00;;;;;;;;;;5039437;28;20048;-89
2022/03/19 09:55:56;;;;;;;5.30;1.10;;;;;;;;;;5030951;28;20043;-87
2022/03/19 09:58:22;;;;;;;2.10;1.15;;;;;;;;;;5033781;28;20052;-88
2022/03/19 10:00:48;;;;;;;0.95;0.80;;;;;;;;;;5048325;28;20056;-87
2022/03/19 10:03:14;;;;;;;2.35;1.42;;;;;;;;;;5035653;28;20447;-87
2022/03/19 10:08:35;;;;;;;3.83;1.17;;;;;;;;;;5030681;28;20159;-89
2022/03/19 10:11:02;;;;;;;7.32;1.10;;;;;;;;;;5058481;28;20041;-88
2022/03/19 10:13:28;;;;;;;2.08;1.00;;;;;;;;;;5045796;28;20042;-88
2022/03/19 10:15:54;;;;;;;1.38;0.60;;;;;;;;;;5051009;28;20034;-89
2022/03/19 10:18:27;;;;;;;3.25;1.42;;;;;;;;;;5064738;28;20036;-87
2022/03/19 10:20:53;;;;;;;0.50;0.50;;;;;;;;;;5041052;28;20038;-87
2022/03/19 10:23:30;;;;;;;3.92;0.47;;;;;;;;;;5011625;28;20566;-88
2022/03/19 10:25:56;;;;;;;2.05;0.75;;;;;;;;;;4992434;28;20076;-87
2022/03/19 10:28:28;;;;;;;0.15;0.15;;;;;;;;;;4994156;28;20061;-86
2022/03/19 10:30:54;;;;;;;3.60;0.82;;;;;;;;;;4990527;28;20137;-90
2022/03/19 10:33:23;;;;;;;0.43;0.43;;;;;;;;;;5007574;28;20073;-91
2022/03/19 10:35:49;;;;;;;1.10;0.65;;;;;;;;;;5002661;28;20049;-88
2022/03/19 10:38:23;;;;;;;1.25;0.85;;;;;;;;;;5043441;28;20120;-89
2022/03/19 10:40:51;;;;;;;0.32;0.30;;;;;;;;;;5005052;28;20096;-90
2022/03/19 10:43:18;;;;;;;3.85;0.90;;;;;;;;;;5009227;28;20701;-89
2022/03/19 10:45:48;;;;;;;4.95;0.77;;;;;;;;;;5012840;28;20045;-90
2022/03/19 10:48:28;;;;;;;3.35;0.75;;;;;;;;;;5039640;28;20048;-90
2022/03/19 10:50:55;;;;;;;3.33;0.98;;;;;;;;;;4991649;28;20054;-90
2022/03/19 10:53:23;;;;;;;1.30;1.00;;;;;;;;;;5018841;28;20051;-90
2022/03/19 10:55:49;;;;;;;1.02;0.77;;;;;;;;;;5017936;28;20091;-90
2022/03/19 10:58:16;;;;;;;1.00;0.63;;;;;;;;;;5007646;28;20129;-90
2022/03/19 11:00:50;;;;;;;1.05;0.40;;;;;;;;;;4997728;28;20060;-91
2022/03/19 11:03:21;;;;;;;1.48;0.73;;;;;;;;;;5015978;28;20395;-90
2022/03/19 11:05:49;;;;;;;1.80;0.88;;;;;;;;;;5014704;28;20048;-90
2022/03/19 11:08:18;;;;;;;2.28;1.10;;;;;;;;;;5024751;28;20499;-90
2022/03/19 11:10:46;;;;;;;1.85;0.55;;;;;;;;;;5020353;28;20402;-90
2022/03/19 11:13:15;;;;;;;0.93;0.68;;;;;;;;;;5027953;28;20037;-89
2022/03/19 11:15:57;;;;;;;1.95;0.63;;;;;;;;;;5017224;28;20046;-90
2022/03/19 11:18:23;;;;;;;3.17;0.57;;;;;;;;;;5003129;28;20059;-89
2022/03/19 11:20:58;;;;;;;4.13;2.00;;;;;;;;;;5022737;28;20087;-89
2022/03/19 11:25:58;;;;;;;1.67;1.08;;;;;;;;;;5042371;28;20362;-89
2022/03/19 11:28:25;;;;;;;0.60;0.50;;;;;;;;;;5031284;28;20065;-89
2022/03/19 11:31:01;;;;;;;3.15;1.25;;;;;;;;;;5025937;28;20042;-90
2022/03/19 11:33:32;;;;;;;2.65;0.55;;;;;;;;;;5033249;28;20048;-90
2022/03/19 11:36:01;;;;;;;1.85;0.60;;;;;;;;;;5028071;28;20045;-90
2022/03/19 11:38:28;;;;;;;2.08;1.38;;;;;;;;;;5024762;28;20037;-90
2022/03/19 11:40:56;;;;;;;0.95;0.52;;;;;;;;;;5057045;28;20033;-90
2022/03/19 11:43:26;;;;;;;1.75;0.65;;;;;;;;;;5049340;28;20083;-90
2022/03/19 11:46:03;;;;;;;0.25;0.25;;;;;;;;;;5055241;28;20041;-89
2022/03/19 11:48:38;;;;;;;4.38;0.68;;;;;;;;;;5025905;28;20047;-90
2022/03/19 11:51:23;;;;;;;0.68;0.30;;;;;;;;;;5051865;28;20045;-90
2022/03/19 11:53:58;;;;;;;4.05;0.80;;;;;;;;;;5021778;28;20065;-90
2022/03/19 11:56:25;;;;;;;0.80;0.52;;;;;;;;;;5049717;28;20037;-90
2022/03/19 11:58:52;;;;;;;3.83;1.23;;;;;;;;;;5061219;28;20049;-90
2022/03/19 12:01:18;;;;;;;0.10;0.10;;;;;;;;;;5069835;28;20041;-90
2022/03/19 12:04:03;;;;;;;2.35;1.08;;;;;;;;;;5035480;28;20046;-89
2022/03/19 12:06:33;;;;;;;1.40;0.50;;;;;;;;;;5067648;28;20560;-90
2022/03/19 12:09:16;;;;;;;6.47;0.77;;;;;;;;;;5044416;28;20488;-88
2022/03/19 12:12:02;;;;;;;0.68;0.47;;;;;;;;;;5057676;28;20134;-90
2022/03/19 12:14:29;;;;;;;0.63;0.63;;;;;;;;;;5053897;28;20048;-92
2022/03/19 12:17:14;;;;;;;0.20;0.20;;;;;;;;;;5046610;28;20482;-91
2022/03/19 12:19:49;;;;;;;1.20;0.50;;;;;;;;;;5066008;28;20075;-90
2022/03/19 12:22:25;;;;;;;4.57;0.95;;;;;;;;;;5048441;28;20060;-89
2022/03/19 12:24:53;;;;;;;0.70;0.40;;;;;;;;;;5033940;28;20045;-90
2022/03/19 12:27:20;;;;;;;1.90;0.80;;;;;;;;;;5022793;28;20045;-90
2022/03/19 12:29:47;;;;;;;1.20;0.63;;;;;;;;;;5042758;28;20080;-90
2022/03/19 12:32:13;;;;;;;0.20;0.10;;;;;;;;;;5027464;28;20067;-91
2022/03/19 12:34:40;;;;;;;2.47;0.43;;;;;;;;;;5065889;28;20049;-90
2022/03/19 12:37:24;;;;;;;2.90;0.55;;;;;;;;;;5046598;28;20116;-89
2022/03/19 12:40:01;;;;;;;4.57;1.05;;;;;;;;;;5063456;28;20033;-90
2022/03/19 12:42:32;;;;;;;0.60;0.50;;;;;;;;;;5070803;28;20046;-90
2022/03/19 12:45:03;;;;;;;2.35;0.40;;;;;;;;;;5038963;28;20467;-91
2022/03/19 12:47:30;;;;;;;4.30;0.60;;;;;;;;;;5049998;28;20046;-91
2022/03/19 12:49:56;;;;;;;2.05;0.40;;;;;;;;;;5030115;28;20051;-90
2022/03/19 12:52:22;;;;;;;3.63;1.30;;;;;;;;;;5027052;28;20576;-90
2022/03/19 12:54:55;;;;;;;0.45;0.30;;;;;;;;;;5035183;28;20042;-89
2022/03/19 12:57:24;;;;;;;3.65;0.63;;;;;;;;;;5045073;28;20077;-90
2022/03/19 12:59:58;;;;;;;0.70;0.30;;;;;;;;;;5047054;28;20083;-90
2022/03/19 13:02:25;;;;;;;1.48;0.60;;;;;;;;;;5051436;28;20486;-90
2022/03/19 13:04:52;;;;;;;0.30;0.30;;;;;;;;;;5028837;28;20107;-90
2022/03/19 13:07:24;;;;;;;1.38;0.65;;;;;;;;;;5020699;28;20052;-91
2022/03/19 13:09:56;;;;;;;0.52;0.30;;;;;;;;;;5053282;28;20056;-90
2022/03/19 13:12:23;;;;;;;0.30;0.30;;;;;;;;;;5025698;28;20052;-90
2022/03/19 13:14:50;;;;;;;2.97;0.68;;;;;;;;;;5027413;28;20041;-89
2022/03/19 13:17:17;;;;;;;0.80;0.50;;;;;;;;;;5043417;28;20064;-90
2022/03/19 13:19:43;;;;;;;2.50;1.55;;;;;;;;;;5061159;28;20490;-91
2022/03/19 13:22:11;;;;;;;5.07;0.95;;;;;;;;;;5046929;28;20442;-89
2022/03/19 13:24:46;;;;;;;2.72;0.65;;;;;;;;;;5058418;28;20049;-90
2022/03/19 13:27:13;;;;;;;5.57;1.25;;;;;;;;;;5053133;28;20037;-89
2022/03/19 13:32:25;;;;;;;0.57;0.55;;;;;;;;;;5029443;28;20053;-90
2022/03/19 13:34:53;;;;;;;1.17;0.40;;;;;;;;;;5042767;28;20049;-90
2022/03/19 13:37:21;;;;;;;3.33;0.55;;;;;;;;;;5048278;28;20049;-92
2022/03/19 13:40:01;;;;;;;0.43;0.32;;;;;;;;;;5040239;28;20037;-91
2022/03/19 13:42:36;;;;;;;1.52;0.77;;;;;;;;;;5042885;28;20037;-91
2022/03/19 13:45:08;;;;;;;0.30;0.30;;;;;;;;;;5045165;28;20041;-91
2022/03/19 13:47:49;;;;;;;0.08;0.08;;;;;;;;;;5060841;28;20101;-90
2022/03/19 13:50:20;;;;;;;0.90;0.50;;;;;;;;;;5019495;28;20060;-89
2022/03/19 13:52:49;;;;;;;1.73;0.57;;;;;;;;;;5021080;28;20045;-89
2022/03/19 13:55:21;;;;;;;1.63;1.20;;;;;;;;;;5022763;28;20107;-90
2022/03/19 13:57:48;;;;;;;1.05;0.65;;;;;;;;;;5048190;28;20058;-91
2022/03/19 14:00:23;;;;;;;1.10;0.47;;;;;;;;;;5073436;28;20041;-90
2022/03/19 14:02:54;;;;;;;1.13;0.43;;;;;;;;;;5042476;28;20037;-90
2022/03/19 14:05:26;;;;;;;0.30;0.20;;;;;;;;;;5037460;28;20041;-90
2022/03/19 14:07:58;;;;;;;2.25;0.55;;;;;;;;;;5048799;28;20041;-92
2022/03/19 14:10:28;;;;;;;1.17;0.68;;;;;;;;;;5075356;28;20041;-92
2022/03/19 14:13:04;;;;;;;3.63;0.65;;;;;;;;;;5013992;28;20052;-92
2022/03/19 14:15:30;;;;;;;;;;;;;;;;;;5059798;28;20041;-90
2022/03/19 14:17:58;;;;;;;6.03;1.27;;;;;;;;;;5027754;28;19982;-91
2022/03/19 14:20:24;;;;;;;1.27;0.63;;;;;;;;;;5051698;28;20041;-90
2022/03/19 14:22:53;;;;;;;0.43;0.38;;;;;;;;;;5020861;28;20045;-91
2022/03/19 14:25:21;;;;;;;2.05;0.57;;;;;;;;;;5053109;28;20102;-88
2022/03/19 14:27:48;;;;;;;0.55;0.35;;;;;;;;;;5049256;28;20042;-91
2022/03/19 14:30:15;;;;;;;1.55;0.73;;;;;;;;;;5062763;28;20040;-91
2022/03/19 14:32:41;;;;;;;0.50;0.43;;;;;;;;;;5034989;28;20278;-91
2022/03/19 14:35:28;;;;;;;1.30;0.57;;;;;;;;;;5056281;28;20241;-92
2022/03/19 14:37:54;;;;;;;;;;;;;;;;;;5046959;28;20041;-92
2022/03/19 14:40:31;;;;;;;0.98;0.50;;;;;;;;;;5065655;28;19936;-92
2022/03/19 14:43:00;;;;;;;0.90;0.25;;;;;;;;;;5058582;28;20657;-92
2022/03/19 14:45:30;;;;;;;2.03;1.02;;;;;;;;;;5012673;28;20042;-91
2022/03/19 14:47:56;;;;;;;4.55;0.65;;;;;;;;;;5055120;28;20053;-92
2022/03/19 14:50:27;;;;;;;2.03;0.65;;;;;;;;;;5031361;28;20418;-91
2022/03/19 14:52:55;;;;;;;0.50;0.32;;;;;;;;;;5030698;28;20442;-91
2022/03/19 14:55:24;;;;;;;4.85;0.35;;;;;;;;;;5024445;28;20066;-90
2022/03/19 14:57:51;;;;;;;0.77;0.40;;;;;;;;;;5046086;28;20046;-90
2022/03/19 15:00:18;;;;;;;1.60;0.63;;;;;;;;;;5022958;28;20503;-90
2022/03/19 15:02:45;;;;;;;0.28;0.28;;;;;;;;;;5067851;28;20075;-90
2022/03/19 15:05:12;;;;;;;1.00;0.38;;;;;;;;;;5063350;28;20048;-92
2022/03/19 15:07:39;;;;;;;2.08;0.88;;;;;;;;;;5027398;28;20041;-91